createdAt,value
2022-10-16T00:00:45.617Z,94.81
2022-10-16T00:03:13.683Z,94.92
2022-10-16T00:05:42.688Z,94.72
2022-10-16T00:08:11.378Z,94.58
2022-10-16T00:10:39.378Z,94.60
2022-10-16T00:13:08.815Z,94.73
2022-10-16T00:15:37.881Z,94.68
2022-10-16T00:18:06.380Z,95.28
2022-10-16T00:20:37.639Z,95.21
2022-10-16T00:23:06.464Z,95.49
2022-10-16T00:25:34.758Z,95.56
2022-10-16T00:28:02.647Z,95.80
2022-10-16T00:30:35.933Z,95.98
2022-10-16T00:33:03.689Z,95.80
2022-10-16T00:35:32.540Z,95.92
2022-10-16T00:38:00.319Z,95.75
2022-10-16T00:40:29.250Z,96.04
2022-10-16T00:42:57.183Z,96.13
2022-10-16T00:45:25.019Z,96.37
2022-10-16T00:47:55.802Z,96.35
2022-10-16T00:50:25.816Z,96.34
2022-10-16T00:52:54.122Z,96.71
2022-10-16T00:55:22.505Z,96.80
2022-10-16T00:57:51.781Z,96.78
2022-10-16T01:00:20.960Z,96.48
2022-10-16T01:02:55.546Z,96.58
2022-10-16T01:05:24.074Z,96.11
2022-10-16T01:07:58.222Z,95.65
2022-10-16T01:10:28.754Z,95.23
2022-10-16T01:12:59.899Z,94.88
2022-10-16T01:15:30.856Z,94.99
2022-10-16T01:18:03.053Z,94.99
2022-10-16T01:20:32.143Z,94.61
2022-10-16T01:23:09.653Z,94.66
2022-10-16T01:25:41.691Z,94.33
2022-10-16T01:28:13.282Z,94.22
2022-10-16T01:30:43.650Z,93.96
2022-10-16T01:33:16.086Z,94.09
2022-10-16T01:35:46.761Z,94.04
2022-10-16T01:38:17.797Z,93.93
2022-10-16T01:40:48.026Z,93.78
2022-10-16T01:43:19.780Z,94.23
2022-10-16T01:45:48.299Z,94.66
2022-10-16T01:48:18.598Z,94.87
2022-10-16T01:50:51.546Z,94.99
2022-10-16T01:53:19.659Z,95.12
2022-10-16T01:55:49.538Z,95.15
2022-10-16T01:58:18.648Z,95.39
2022-10-16T02:00:48.541Z,95.53
2022-10-16T02:03:18.118Z,95.53
2022-10-16T02:05:48.173Z,95.52
2022-10-16T02:08:15.976Z,95.50
2022-10-16T02:10:43.808Z,95.51
2022-10-16T02:13:13.902Z,95.38
2022-10-16T02:15:43.038Z,95.32
2022-10-16T02:18:11.369Z,95.30
2022-10-16T02:20:41.434Z,95.44
2022-10-16T02:23:12.880Z,95.24
2022-10-16T02:25:43.338Z,95.54
2022-10-16T02:28:14.302Z,95.48
2022-10-16T02:30:47.800Z,95.01
2022-10-16T02:33:16.964Z,94.28
2022-10-16T02:35:46.442Z,93.54
2022-10-16T02:38:16.020Z,93.20
2022-10-16T02:40:44.372Z,93.06
2022-10-16T02:43:12.655Z,93.03
2022-10-16T02:45:40.707Z,93.19
2022-10-16T02:48:10.364Z,93.32
2022-10-16T02:50:38.133Z,93.09
2022-10-16T02:53:05.946Z,93.01
2022-10-16T02:55:33.678Z,93.00
2022-10-16T02:58:01.569Z,92.64
2022-10-16T03:00:29.443Z,92.54
2022-10-16T03:02:57.318Z,93.08
2022-10-16T03:05:26.556Z,93.51
2022-10-16T03:07:54.540Z,93.12
2022-10-16T03:10:22.457Z,93.12
2022-10-16T03:12:50.191Z,93.17
2022-10-16T03:15:17.928Z,92.90
2022-10-16T03:17:45.681Z,92.82
2022-10-16T03:20:13.392Z,92.98
2022-10-16T03:22:42.797Z,92.66
2022-10-16T03:25:10.684Z,92.23
2022-10-16T03:27:38.627Z,91.73
2022-10-16T03:30:06.804Z,91.42
2022-10-16T03:35:03.563Z,90.27
2022-10-16T03:37:31.292Z,90.34
2022-10-16T03:40:00.825Z,90.21
2022-10-16T03:42:28.565Z,89.88
2022-10-16T03:44:56.495Z,89.78
2022-10-16T03:47:24.926Z,89.68
2022-10-16T03:49:53.025Z,89.47
2022-10-16T03:52:20.789Z,88.88
2022-10-16T03:54:48.613Z,88.86
2022-10-16T03:57:17.831Z,88.79
2022-10-16T03:59:45.608Z,88.59
2022-10-16T04:02:13.363Z,88.85
2022-10-16T04:04:41.290Z,89.19
2022-10-16T04:07:09.129Z,89.49
2022-10-16T04:09:36.897Z,89.57
2022-10-16T04:12:04.768Z,89.23
2022-10-16T04:14:33.845Z,89.39
2022-10-16T04:17:01.746Z,89.83
2022-10-16T04:19:29.473Z,90.02
2022-10-16T04:21:57.193Z,89.70
2022-10-16T04:24:24.973Z,89.39
2022-10-16T04:26:52.687Z,89.04
2022-10-16T04:29:21.135Z,89.20
2022-10-16T04:31:50.309Z,89.16
2022-10-16T04:34:18.091Z,89.04
2022-10-16T04:36:46.156Z,88.48
2022-10-16T04:39:13.887Z,87.83
2022-10-16T04:41:41.812Z,87.21
2022-10-16T04:44:09.671Z,87.20
2022-10-16T04:46:37.474Z,87.37
2022-10-16T04:49:06.587Z,87.25
2022-10-16T04:51:34.466Z,86.79
2022-10-16T04:54:02.363Z,87.05
2022-10-16T04:56:30.108Z,86.39
2022-10-16T04:58:57.820Z,86.75
2022-10-16T05:01:25.631Z,86.42
2022-10-16T05:03:53.349Z,85.87
2022-10-16T05:06:22.580Z,85.36
2022-10-16T05:08:50.332Z,85.78
2022-10-16T05:11:18.086Z,85.95
2022-10-16T05:13:45.801Z,85.81
2022-10-16T05:16:13.543Z,85.56
2022-10-16T05:18:41.417Z,85.28
2022-10-16T05:21:09.159Z,84.91
2022-10-16T05:23:38.221Z,84.90
2022-10-16T05:26:06.090Z,84.71
2022-10-16T05:28:34.086Z,84.94
2022-10-16T05:31:05.779Z,85.22
2022-10-16T05:33:33.742Z,85.35
2022-10-16T05:36:03.015Z,85.17
2022-10-16T05:38:30.868Z,85.02
2022-10-16T05:40:59.965Z,85.38
2022-10-16T05:43:28.753Z,85.37
2022-10-16T05:45:57.242Z,85.37
2022-10-16T05:48:25.109Z,84.92
2022-10-16T05:50:58.916Z,85.12
2022-10-16T05:53:27.359Z,85.61
2022-10-16T05:55:55.554Z,85.64
2022-10-16T05:58:24.991Z,85.61
2022-10-16T06:00:56.528Z,85.67
2022-10-16T06:03:24.717Z,85.72
2022-10-16T06:05:52.792Z,85.23
2022-10-16T06:08:21.596Z,85.42
2022-10-16T06:10:49.732Z,85.11
2022-10-16T06:13:17.609Z,85.77
2022-10-16T06:15:48.944Z,85.63
2022-10-16T06:18:16.687Z,85.74
2022-10-16T06:20:44.442Z,85.62
2022-10-16T06:23:21.557Z,85.32
2022-10-16T06:25:49.299Z,85.47
2022-10-16T06:28:17.407Z,85.21
2022-10-16T06:31:05.547Z,84.78
2022-10-16T06:33:36.156Z,84.25
2022-10-16T06:36:04.545Z,83.48
2022-10-16T06:38:32.787Z,82.29
2022-10-16T06:41:00.576Z,82.26
2022-10-16T06:43:28.494Z,81.03
2022-10-16T06:45:57.201Z,80.94
2022-10-16T06:48:26.538Z,80.60
2022-10-16T06:50:58.527Z,80.67
2022-10-16T06:53:26.633Z,80.98
2022-10-16T06:55:54.395Z,80.85
2022-10-16T06:58:22.211Z,80.64
2022-10-16T07:00:50.207Z,80.85
2022-10-16T07:03:21.853Z,80.91
2022-10-16T07:05:51.279Z,81.19
2022-10-16T07:08:19.031Z,81.17
2022-10-16T07:10:46.847Z,81.13
2022-10-16T07:13:15.290Z,80.82
2022-10-16T07:15:43.203Z,80.21
2022-10-16T07:18:13.845Z,79.71
2022-10-16T07:20:41.670Z,80.11
2022-10-16T07:23:11.681Z,80.72
2022-10-16T07:25:39.629Z,81.03
2022-10-16T07:28:08.042Z,81.72
2022-10-16T07:30:37.399Z,81.93
2022-10-16T07:33:05.706Z,81.43
2022-10-16T07:35:33.502Z,74.31
2022-10-16T07:38:01.267Z,71.11
2022-10-16T07:40:30.525Z,64.93
2022-10-16T07:42:58.920Z,57.30
2022-10-16T07:45:26.692Z,52.54
2022-10-16T07:47:54.657Z,47.36
2022-10-16T07:50:22.474Z,44.46
2022-10-16T07:52:50.365Z,41.53
2022-10-16T07:55:18.394Z,39.88
2022-10-16T07:57:47.475Z,36.81
2022-10-16T08:00:17.816Z,35.84
2022-10-16T08:02:45.630Z,34.10
2022-10-16T08:05:13.469Z,33.77
2022-10-16T08:07:41.345Z,32.89
2022-10-16T08:10:16.970Z,33.77
2022-10-16T08:12:44.879Z,37.41
2022-10-16T08:15:14.001Z,36.57
2022-10-16T08:17:41.778Z,34.53
2022-10-16T08:20:10.378Z,33.57
2022-10-16T08:22:38.270Z,33.85
2022-10-16T08:25:06.801Z,32.88
2022-10-16T08:27:34.652Z,33.46
2022-10-16T08:30:02.555Z,35.35
2022-10-16T08:32:31.974Z,35.29
2022-10-16T08:34:59.838Z,38.58
2022-10-16T08:37:32.023Z,34.85
2022-10-16T08:40:00.286Z,34.48
2022-10-16T08:42:34.418Z,31.69
2022-10-16T08:45:15.969Z,33.14
2022-10-16T08:47:50.112Z,33.61
2022-10-16T08:50:21.951Z,32.91
2022-10-16T08:52:49.993Z,31.17
2022-10-16T08:55:23.177Z,29.73
2022-10-16T08:57:51.343Z,28.31
2022-10-16T09:00:19.629Z,28.83
2022-10-16T09:02:52.813Z,27.80
2022-10-16T09:05:33.328Z,32.17
2022-10-16T09:08:09.124Z,30.24
2022-10-16T09:10:46.265Z,32.67
2022-10-16T09:13:19.943Z,32.73
2022-10-16T09:15:51.808Z,34.82
2022-10-16T09:18:30.009Z,34.30
2022-10-16T09:21:03.623Z,34.01
2022-10-16T09:23:40.102Z,35.12
2022-10-16T09:26:11.737Z,33.74
2022-10-16T09:28:39.859Z,35.08
2022-10-16T09:31:07.876Z,32.75
2022-10-16T09:33:38.520Z,29.05
2022-10-16T09:36:07.653Z,34.21
2022-10-16T09:38:36.820Z,37.18
2022-10-16T09:41:11.177Z,37.95
2022-10-16T09:43:42.386Z,36.71
2022-10-16T09:46:21.804Z,34.51
2022-10-16T09:48:52.131Z,31.51
2022-10-16T09:51:20.935Z,28.13
2022-10-16T09:53:48.979Z,30.17
2022-10-16T09:56:24.050Z,31.44
2022-10-16T09:58:52.715Z,28.53
2022-10-16T10:01:21.410Z,28.91
2022-10-16T10:03:50.517Z,30.26
2022-10-16T10:06:23.186Z,29.16
2022-10-16T10:08:55.318Z,28.34
2022-10-16T10:11:38.307Z,28.54
2022-10-16T10:14:06.866Z,24.95
2022-10-16T10:16:34.578Z,23.00
2022-10-16T10:19:02.975Z,21.02
2022-10-16T10:21:34.575Z,20.42
2022-10-16T10:24:02.550Z,18.53
2022-10-16T10:26:32.433Z,16.95
2022-10-16T10:29:06.305Z,18.29
2022-10-16T10:31:39.069Z,17.84
2022-10-16T10:34:20.070Z,20.31
2022-10-16T10:36:55.411Z,24.56
2022-10-16T10:39:27.551Z,29.18
2022-10-16T10:42:01.437Z,31.95
2022-10-16T10:44:44.548Z,35.42
2022-10-16T10:47:20.107Z,37.89
2022-10-16T10:49:55.279Z,40.57
2022-10-16T10:52:36.502Z,41.95
2022-10-16T10:55:11.195Z,43.85
2022-10-16T10:57:44.176Z,40.09
2022-10-16T11:00:18.557Z,37.14
2022-10-16T11:02:50.094Z,36.10
2022-10-16T11:05:25.839Z,38.15
2022-10-16T11:07:59.854Z,37.43
2022-10-16T11:10:29.191Z,35.70
2022-10-16T11:12:59.078Z,38.14
2022-10-16T11:15:30.280Z,35.55
2022-10-16T11:18:02.091Z,31.43
2022-10-16T11:20:32.081Z,35.48
2022-10-16T11:23:04.383Z,37.14
2022-10-16T11:25:33.697Z,41.42
2022-10-16T11:28:04.036Z,33.96
2022-10-16T11:30:33.134Z,28.69
2022-10-16T11:33:10.628Z,25.48
2022-10-16T11:35:43.992Z,22.79
2022-10-16T11:38:16.801Z,23.59
2022-10-16T11:40:48.690Z,22.94
2022-10-16T11:43:19.416Z,24.23
2022-10-16T11:45:48.630Z,22.62
2022-10-16T11:48:20.437Z,20.50
2022-10-16T11:50:51.972Z,22.80
2022-10-16T11:53:25.779Z,21.35
2022-10-16T11:55:53.815Z,20.51
2022-10-16T11:58:24.877Z,21.01
2022-10-16T12:00:57.820Z,21.90
2022-10-16T12:03:29.850Z,19.80
2022-10-16T12:06:08.689Z,16.86
2022-10-16T12:08:38.381Z,17.27
2022-10-16T12:11:10.413Z,20.60
2022-10-16T12:13:39.528Z,21.43
2022-10-16T12:16:08.455Z,19.62
2022-10-16T12:18:36.231Z,19.06
2022-10-16T12:21:07.469Z,19.35
2022-10-16T12:23:38.717Z,18.87
2022-10-16T12:26:08.292Z,18.89
2022-10-16T12:28:37.181Z,22.35
2022-10-16T12:31:06.830Z,21.76
2022-10-16T12:33:36.090Z,21.89
2022-10-16T12:36:05.851Z,20.02
2022-10-16T12:38:38.785Z,20.68
2022-10-16T12:41:09.256Z,19.64
2022-10-16T12:43:39.492Z,22.42
2022-10-16T12:46:22.332Z,25.24
2022-10-16T12:49:06.120Z,27.23
2022-10-16T12:51:36.858Z,28.89
2022-10-16T12:54:05.613Z,31.16
2022-10-16T12:59:15.509Z,28.72
2022-10-16T13:01:51.649Z,23.77
2022-10-16T13:04:38.554Z,23.60
2022-10-16T13:07:16.546Z,21.34
2022-10-16T13:09:50.932Z,22.08
2022-10-16T13:12:30.142Z,21.28
2022-10-16T13:15:07.920Z,21.43
2022-10-16T13:17:40.781Z,26.70
2022-10-16T13:20:14.710Z,27.66
2022-10-16T13:22:47.952Z,24.35
2022-10-16T13:25:24.303Z,23.77
2022-10-16T13:27:56.737Z,24.56
2022-10-16T13:30:28.365Z,25.22
2022-10-16T13:33:02.891Z,26.67
2022-10-16T13:35:32.201Z,28.67
2022-10-16T13:38:14.244Z,32.56
2022-10-16T13:40:55.934Z,33.68
2022-10-16T13:43:27.735Z,33.41
2022-10-16T13:45:56.709Z,33.52
2022-10-16T13:48:24.500Z,33.08
2022-10-16T13:51:05.620Z,33.59
2022-10-16T13:53:34.195Z,34.75
2022-10-16T13:56:02.271Z,36.06
2022-10-16T13:58:31.705Z,38.97
2022-10-16T14:01:00.805Z,41.21
2022-10-16T14:03:29.337Z,43.53
2022-10-16T14:05:58.922Z,44.89
2022-10-16T14:08:27.783Z,45.67
2022-10-16T14:10:58.007Z,46.48
2022-10-16T14:13:30.026Z,47.22
2022-10-16T14:16:02.046Z,45.93
2022-10-16T14:18:40.507Z,42.30
2022-10-16T14:21:09.496Z,41.77
2022-10-16T14:23:38.248Z,40.81
2022-10-16T14:26:23.658Z,39.57
2022-10-16T14:29:03.118Z,39.54
2022-10-16T14:31:33.216Z,40.97
2022-10-16T14:34:01.494Z,42.94
2022-10-16T14:36:29.640Z,45.20
2022-10-16T14:39:02.550Z,47.06
2022-10-16T14:41:31.181Z,48.12
2022-10-16T14:44:02.874Z,49.25
2022-10-16T14:46:35.427Z,50.19
2022-10-16T14:49:06.257Z,51.26
2022-10-16T14:51:34.119Z,51.04
2022-10-16T14:54:02.689Z,51.55
2022-10-16T14:56:33.211Z,51.46
2022-10-16T14:59:02.275Z,50.12
2022-10-16T15:01:30.205Z,50.50
2022-10-16T15:03:59.358Z,49.84
2022-10-16T15:06:27.139Z,49.56
2022-10-16T15:08:54.870Z,50.05
2022-10-16T15:11:22.694Z,51.08
2022-10-16T15:13:50.662Z,51.37
2022-10-16T15:16:18.924Z,51.72
2022-10-16T15:18:46.746Z,52.07
2022-10-16T15:21:22.612Z,52.45
2022-10-16T15:23:50.702Z,53.26
2022-10-16T15:26:18.544Z,53.57
2022-10-16T15:28:46.563Z,54.47
2022-10-16T15:31:14.591Z,55.32
2022-10-16T15:33:42.405Z,55.24
2022-10-16T15:36:10.340Z,56.38
2022-10-16T15:38:39.583Z,57.04
2022-10-16T15:41:07.460Z,57.58
2022-10-16T15:43:35.359Z,57.87
2022-10-16T15:46:04.550Z,58.91
2022-10-16T15:48:32.739Z,59.85
2022-10-16T15:51:01.178Z,60.52
2022-10-16T15:53:28.913Z,60.86
2022-10-16T15:55:58.309Z,62.08
2022-10-16T15:58:26.230Z,62.14
2022-10-16T16:00:57.992Z,62.63
2022-10-16T16:03:26.366Z,62.89
2022-10-16T16:05:54.149Z,63.67
2022-10-16T16:08:22.290Z,63.78
2022-10-16T16:11:00.672Z,63.72
2022-10-16T16:13:28.856Z,64.33
2022-10-16T16:15:56.694Z,64.98
2022-10-16T16:18:24.716Z,65.86
2022-10-16T16:20:52.632Z,66.33
2022-10-16T16:23:21.054Z,66.82
2022-10-16T16:28:53.694Z,67.24
2022-10-16T16:31:22.195Z,67.99
2022-10-16T16:33:52.113Z,69.05
2022-10-16T16:36:20.481Z,69.36
2022-10-16T16:38:48.536Z,70.09
2022-10-16T16:41:17.647Z,70.03
2022-10-16T16:43:45.694Z,70.38
2022-10-16T16:46:15.204Z,70.76
2022-10-16T16:48:43.079Z,71.05
2022-10-16T16:51:16.007Z,71.31
2022-10-16T16:53:44.548Z,71.99
2022-10-16T16:56:12.539Z,72.46
2022-10-16T16:58:40.576Z,72.28
2022-10-16T17:01:21.084Z,72.43
2022-10-16T17:03:52.704Z,73.17
2022-10-16T17:06:21.529Z,73.26
2022-10-16T17:08:49.360Z,73.53
2022-10-16T17:11:18.523Z,73.70
2022-10-16T17:13:46.600Z,72.82
2022-10-16T17:16:14.567Z,72.66
2022-10-16T17:18:43.193Z,72.51
2022-10-16T17:21:12.566Z,72.81
2022-10-16T17:23:40.584Z,72.84
2022-10-16T17:26:09.240Z,72.38
2022-10-16T17:28:37.265Z,72.36
2022-10-16T17:31:08.724Z,72.35
2022-10-16T17:33:36.894Z,72.39
2022-10-16T17:36:05.443Z,72.32
2022-10-16T17:38:34.529Z,71.43
2022-10-16T17:41:11.195Z,70.84
2022-10-16T17:43:39.412Z,70.23
2022-10-16T17:46:07.933Z,69.80
2022-10-16T17:48:40.471Z,69.79
2022-10-16T17:51:09.239Z,70.61
2022-10-16T17:53:38.831Z,70.92
2022-10-16T17:56:07.345Z,70.76
2022-10-16T17:58:35.462Z,71.07
2022-10-16T18:01:03.721Z,71.08
2022-10-16T18:03:31.641Z,69.83
2022-10-16T18:05:59.478Z,69.06
2022-10-16T18:08:28.838Z,69.08
2022-10-16T18:10:58.148Z,69.17
2022-10-16T18:13:26.000Z,68.91
2022-10-16T18:16:00.553Z,68.68
2022-10-16T18:18:29.737Z,68.75
2022-10-16T18:20:58.182Z,68.99
2022-10-16T18:23:34.501Z,69.08
2022-10-16T18:26:03.770Z,69.26
2022-10-16T18:28:31.784Z,68.86
2022-10-16T18:31:00.662Z,68.87
2022-10-16T18:33:30.602Z,69.27
2022-10-16T18:36:01.315Z,69.09
2022-10-16T18:38:30.248Z,69.30
2022-10-16T18:40:58.158Z,69.69
2022-10-16T18:43:27.457Z,69.75
2022-10-16T18:45:58.994Z,69.74
2022-10-16T18:48:27.453Z,69.92
2022-10-16T18:50:55.510Z,70.00
2022-10-16T18:53:23.479Z,70.32
2022-10-16T18:55:54.433Z,70.02
2022-10-16T18:58:22.593Z,70.23
2022-10-16T19:00:51.694Z,70.34
2022-10-16T19:03:19.627Z,70.81
2022-10-16T19:05:47.516Z,70.69
2022-10-16T19:08:15.623Z,70.75
2022-10-16T19:10:43.588Z,70.85
2022-10-16T19:13:11.510Z,71.10
2022-10-16T19:15:44.414Z,71.61
2022-10-16T19:18:13.964Z,71.62
2022-10-16T19:20:42.065Z,71.34
2022-10-16T19:23:14.951Z,71.55
2022-10-16T19:25:43.022Z,71.46
2022-10-16T19:28:10.962Z,71.73
2022-10-16T19:30:39.804Z,71.59
2022-10-16T19:33:07.629Z,72.95
2022-10-16T19:35:36.949Z,74.24
2022-10-16T19:38:04.911Z,75.89
2022-10-16T19:40:32.671Z,77.89
2022-10-16T19:43:00.665Z,78.66
2022-10-16T19:45:28.590Z,80.34
2022-10-16T19:47:56.649Z,81.37
2022-10-16T19:50:24.389Z,82.86
2022-10-16T19:52:53.641Z,83.57
2022-10-16T19:55:21.619Z,84.54
2022-10-16T19:57:49.429Z,85.45
2022-10-16T20:00:17.729Z,86.16
2022-10-16T20:02:45.617Z,86.65
2022-10-16T20:05:13.394Z,86.76
2022-10-16T20:07:41.294Z,87.05
2022-10-16T20:10:10.950Z,87.33
2022-10-16T20:12:38.832Z,87.71
2022-10-16T20:15:07.447Z,88.02
2022-10-16T20:17:35.288Z,88.23
2022-10-16T20:20:04.153Z,88.18
2022-10-16T20:22:31.978Z,88.33
2022-10-16T20:24:59.853Z,88.68
2022-10-16T20:27:29.553Z,89.04
2022-10-16T20:29:57.925Z,89.52
2022-10-16T20:32:25.930Z,89.91
2022-10-16T20:34:53.802Z,90.23
2022-10-16T20:37:21.752Z,90.31
2022-10-16T20:39:49.650Z,90.31
2022-10-16T20:42:17.593Z,90.51
2022-10-16T20:44:49.219Z,90.37
2022-10-16T20:47:19.572Z,90.83
2022-10-16T20:49:47.526Z,90.74
2022-10-16T20:52:15.471Z,91.00
2022-10-16T20:54:45.811Z,91.39
2022-10-16T20:57:13.726Z,91.53
2022-10-16T20:59:41.829Z,91.60
2022-10-16T21:02:14.146Z,91.72
2022-10-16T21:04:42.678Z,91.75
2022-10-16T21:07:10.705Z,91.46
2022-10-16T21:09:39.379Z,91.33
2022-10-16T21:12:08.073Z,91.18
2022-10-16T21:14:42.408Z,91.40
2022-10-16T21:17:20.808Z,91.41
2022-10-16T21:19:48.853Z,91.61
2022-10-16T21:22:16.751Z,91.47
2022-10-16T21:24:44.631Z,91.47
2022-10-16T21:27:12.649Z,91.62
2022-10-16T21:29:40.805Z,91.86
2022-10-16T21:32:08.736Z,92.39
2022-10-16T21:34:37.958Z,92.80
2022-10-16T21:37:05.805Z,93.22
2022-10-16T21:39:33.710Z,93.46
2022-10-16T21:42:01.718Z,93.48
2022-10-16T21:44:29.521Z,93.77
2022-10-16T21:46:58.586Z,93.88
2022-10-16T21:49:27.151Z,94.16
2022-10-16T21:51:56.284Z,94.28
2022-10-16T21:54:24.933Z,94.44
2022-10-16T21:56:53.400Z,94.52
2022-10-16T21:59:21.256Z,94.57
2022-10-16T22:01:49.458Z,94.59
2022-10-16T22:04:17.590Z,94.68
2022-10-16T22:06:45.775Z,94.76
2022-10-16T22:09:16.152Z,94.85
2022-10-16T22:11:45.016Z,95.10
2022-10-16T22:14:14.774Z,95.40
2022-10-16T22:16:43.366Z,95.53
2022-10-16T22:19:12.089Z,95.66
2022-10-16T22:21:40.940Z,95.49
2022-10-16T22:24:09.408Z,95.58
2022-10-16T22:26:39.214Z,95.74
2022-10-16T22:29:07.576Z,95.81
2022-10-16T22:31:35.835Z,95.81
2022-10-16T22:34:05.231Z,95.90
2022-10-16T22:36:33.539Z,95.82
2022-10-16T22:39:01.619Z,96.01
2022-10-16T22:41:29.708Z,96.12
2022-10-16T22:43:59.153Z,96.09
2022-10-16T22:46:28.739Z,96.33
2022-10-16T22:48:57.196Z,96.40
2022-10-16T22:51:25.570Z,96.24
2022-10-16T22:53:53.604Z,96.33
2022-10-16T22:56:22.269Z,96.52
2022-10-16T22:58:50.227Z,96.82
2022-10-16T23:01:21.322Z,97.01
2022-10-16T23:03:49.694Z,97.28
2022-10-16T23:06:17.682Z,97.27
2022-10-16T23:08:45.501Z,97.58
2022-10-16T23:11:14.027Z,97.52
2022-10-16T23:13:45.362Z,97.59
2022-10-16T23:16:15.600Z,97.54
2022-10-16T23:18:45.247Z,97.36
2022-10-16T23:21:14.001Z,97.20
2022-10-16T23:23:42.502Z,97.40
2022-10-16T23:26:11.650Z,97.41
2022-10-16T23:28:40.498Z,97.63
2022-10-16T23:31:08.891Z,97.53
2022-10-16T23:33:38.001Z,97.52
2022-10-16T23:36:08.484Z,97.38
2022-10-16T23:38:36.644Z,97.39
2022-10-16T23:41:05.075Z,97.30
2022-10-16T23:43:32.994Z,96.90
2022-10-16T23:46:00.979Z,96.76
2022-10-16T23:48:29.089Z,96.83
2022-10-16T23:50:56.936Z,96.77
2022-10-16T23:53:26.529Z,96.87
2022-10-16T23:55:54.576Z,97.07
2022-10-16T23:58:22.893Z,97.50
